createdAt,value
2019-05-15T00:02:14.833Z,17.19
2019-05-15T00:04:41.693Z,17.17
2019-05-15T00:07:08.913Z,17.17
2019-05-15T00:09:39.233Z,17.13
2019-05-15T00:12:04.518Z,17.11
2019-05-15T00:14:31.398Z,17.08
2019-05-15T00:16:58.724Z,17.05
2019-05-15T00:19:25.693Z,17.05
2019-05-15T00:21:52.588Z,17.05
2019-05-15T00:24:19.549Z,17.05
2019-05-15T00:26:48.077Z,17.06
2019-05-15T00:29:17.453Z,17.08
2019-05-15T00:31:44.004Z,17.08
2019-05-15T00:34:12.824Z,17.04
2019-05-15T00:36:39.623Z,17.09
2019-05-15T00:39:08.538Z,17.13
2019-05-15T00:41:49.918Z,17.18
2019-05-15T00:44:03.706Z,17.19
2019-05-15T00:46:31.020Z,17.15
2019-05-15T00:48:59.166Z,17.18
2019-05-15T00:51:28.475Z,17.19
2019-05-15T00:53:54.979Z,17.20
2019-05-15T00:56:21.857Z,17.19
2019-05-15T00:58:48.789Z,17.22
2019-05-15T01:01:15.712Z,17.20
2019-05-15T01:03:42.704Z,17.14
2019-05-15T01:06:09.711Z,17.11
2019-05-15T01:08:39.071Z,17.11
2019-05-15T01:11:05.199Z,17.10
2019-05-15T01:13:32.152Z,17.11
2019-05-15T01:15:59.497Z,17.07
2019-05-15T01:18:26.388Z,17.09
2019-05-15T01:20:53.358Z,17.11
2019-05-15T01:23:20.610Z,17.13
2019-05-15T01:25:48.223Z,17.09
2019-05-15T01:28:15.349Z,17.08
2019-05-15T01:30:42.572Z,17.06
2019-05-15T01:33:09.442Z,17.08
2019-05-15T01:35:38.413Z,17.06
2019-05-15T01:38:04.871Z,17.05
2019-05-15T01:40:31.761Z,17.08
2019-05-15T01:42:58.745Z,17.13
2019-05-15T01:45:25.676Z,17.11
2019-05-15T01:47:52.556Z,17.06
2019-05-15T01:50:19.818Z,17.08
2019-05-15T01:52:47.913Z,17.03
2019-05-15T01:55:15.140Z,17.06
2019-05-15T01:57:42.111Z,17.09
2019-05-15T02:00:09.125Z,17.09
2019-05-15T02:02:38.647Z,17.06
2019-05-15T02:05:04.934Z,17.01
2019-05-15T02:07:31.858Z,17.01
2019-05-15T02:09:58.732Z,16.98
2019-05-15T02:12:28.434Z,16.92
2019-05-15T02:14:54.544Z,16.83
2019-05-15T02:17:21.490Z,16.84
2019-05-15T02:19:48.651Z,16.87
2019-05-15T02:22:15.766Z,16.89
2019-05-15T02:24:42.702Z,16.87
2019-05-15T02:27:09.579Z,16.88
2019-05-15T02:29:37.819Z,16.94
2019-05-15T02:32:04.923Z,16.94
2019-05-15T02:34:31.887Z,16.93
2019-05-15T02:37:00.103Z,16.90
2019-05-15T02:39:28.893Z,16.92
2019-05-15T02:41:59.292Z,16.93
2019-05-15T02:44:24.756Z,16.88
2019-05-15T02:46:51.698Z,16.87
2019-05-15T02:49:19.174Z,16.86
2019-05-15T02:51:49.084Z,16.86
2019-05-15T02:54:14.866Z,16.87
2019-05-15T02:56:42.778Z,16.84
2019-05-15T02:59:09.656Z,16.80
2019-05-15T03:01:40.431Z,16.79
2019-05-15T03:04:09.035Z,16.83
2019-05-15T03:06:34.663Z,16.82
2019-05-15T03:09:01.554Z,16.82
2019-05-15T03:11:29.637Z,16.82
2019-05-15T03:13:59.248Z,16.77
2019-05-15T03:16:25.308Z,16.71
2019-05-15T03:18:55.740Z,16.71
2019-05-15T03:21:20.850Z,16.68
2019-05-15T03:23:50.682Z,16.70
2019-05-15T03:26:19.486Z,16.68
2019-05-15T03:28:44.901Z,16.64
2019-05-15T03:31:33.292Z,16.65
2019-05-15T03:33:45.616Z,16.59
2019-05-15T03:36:13.082Z,16.59
2019-05-15T03:38:39.824Z,16.59
2019-05-15T03:41:09.878Z,16.58
2019-05-15T03:43:39.098Z,16.59
2019-05-15T03:46:04.018Z,16.58
2019-05-15T03:48:30.989Z,16.57
2019-05-15T03:50:59.717Z,16.51
2019-05-15T03:53:29.573Z,16.48
2019-05-15T03:55:58.837Z,16.46
2019-05-15T03:58:24.674Z,16.48
2019-05-15T04:00:51.619Z,16.51
2019-05-15T04:03:20.216Z,16.51
2019-05-15T04:05:49.452Z,16.50
2019-05-15T04:08:19.166Z,16.47
2019-05-15T04:10:44.381Z,16.47
2019-05-15T04:13:11.302Z,16.45
2019-05-15T04:15:39.594Z,16.50
2019-05-15T04:18:09.243Z,16.49
2019-05-15T04:20:35.917Z,16.39
2019-05-15T04:23:02.862Z,16.34
2019-05-15T04:25:30.037Z,16.35
2019-05-15T04:27:58.843Z,16.36
2019-05-15T04:30:25.685Z,16.41
2019-05-15T04:32:52.648Z,16.44
2019-05-15T04:35:19.954Z,16.44
2019-05-15T04:37:49.404Z,16.41
2019-05-15T04:40:15.515Z,16.38
2019-05-15T04:42:42.401Z,16.43
2019-05-15T04:45:10.161Z,16.44
2019-05-15T04:47:39.643Z,16.44
2019-05-15T04:50:08.636Z,16.44
2019-05-15T04:52:34.555Z,16.39
2019-05-15T04:55:01.739Z,16.39
2019-05-15T04:57:33.611Z,16.36
2019-05-15T04:59:58.727Z,16.36
2019-05-15T05:02:27.567Z,16.37
2019-05-15T05:04:54.345Z,16.37
2019-05-15T05:07:21.229Z,16.36
2019-05-15T05:09:48.888Z,16.34
2019-05-15T05:12:16.064Z,16.30
2019-05-15T05:14:43.020Z,16.27
2019-05-15T05:17:09.967Z,16.29
2019-05-15T05:19:39.968Z,16.34
2019-05-15T05:22:07.724Z,16.36
2019-05-15T05:24:34.086Z,16.35
2019-05-15T05:27:01.034Z,16.38
2019-05-15T05:29:28.103Z,16.36
2019-05-15T05:31:55.137Z,16.42
2019-05-15T05:34:22.024Z,16.40
2019-05-15T05:36:48.985Z,16.38
2019-05-15T05:39:17.691Z,16.33
2019-05-15T05:41:44.528Z,16.26
2019-05-15T05:44:11.386Z,16.27
2019-05-15T05:46:39.720Z,16.30
2019-05-15T05:49:08.116Z,16.30
2019-05-15T05:51:35.094Z,16.32
2019-05-15T05:54:02.052Z,16.34
2019-05-15T05:56:29.003Z,16.38
2019-05-15T05:58:58.631Z,16.43
2019-05-15T06:01:28.131Z,16.41
2019-05-15T06:03:54.786Z,16.37
2019-05-15T06:06:21.741Z,16.40
2019-05-15T06:08:48.613Z,16.36
2019-05-15T06:11:15.512Z,16.38
2019-05-15T06:13:42.475Z,16.45
2019-05-15T06:16:09.444Z,16.53
2019-05-15T06:18:38.785Z,16.54
2019-05-15T06:21:08.819Z,16.56
2019-05-15T06:23:36.197Z,16.54
2019-05-15T06:26:03.250Z,16.42
2019-05-15T06:28:30.331Z,16.39
2019-05-15T06:31:00.726Z,16.47
2019-05-15T06:33:27.802Z,16.47
2019-05-15T06:35:55.173Z,16.42
2019-05-15T06:38:22.155Z,16.48
2019-05-15T06:40:49.459Z,16.53
2019-05-15T06:43:18.827Z,16.56
2019-05-15T06:45:44.985Z,16.65
2019-05-15T06:48:12.950Z,16.67
2019-05-15T06:50:39.859Z,16.61
2019-05-15T06:53:10.431Z,16.60
2019-05-15T06:55:35.401Z,16.57
2019-05-15T06:58:02.427Z,16.53
2019-05-15T07:00:29.354Z,16.57
2019-05-15T07:02:58.348Z,16.66
2019-05-15T07:05:25.110Z,16.71
2019-05-15T07:07:52.090Z,16.77
2019-05-15T07:10:19.098Z,16.80
2019-05-15T07:12:50.770Z,16.80
2019-05-15T07:15:14.616Z,16.77
2019-05-15T07:17:41.507Z,16.79
2019-05-15T07:20:08.772Z,16.80
2019-05-15T07:22:38.810Z,16.83
2019-05-15T07:25:04.298Z,16.87
2019-05-15T07:27:31.201Z,16.82
2019-05-15T07:29:58.448Z,16.79
2019-05-15T07:32:25.502Z,16.75
2019-05-15T07:34:52.456Z,16.80
2019-05-15T07:37:19.355Z,16.88
2019-05-15T07:39:48.795Z,16.87
2019-05-15T07:42:14.994Z,16.89
2019-05-15T07:44:41.876Z,16.83
2019-05-15T07:47:08.987Z,16.67
2019-05-15T07:49:36.033Z,16.43
2019-05-15T07:52:03.476Z,16.34
2019-05-15T07:54:30.438Z,16.32
2019-05-15T07:56:58.218Z,16.30
2019-05-15T07:59:25.249Z,16.26
2019-05-15T08:01:52.193Z,16.21
2019-05-15T08:04:28.795Z,16.19
2019-05-15T08:06:49.221Z,16.13
2019-05-15T08:09:18.001Z,16.12
2019-05-15T08:11:45.339Z,16.08
2019-05-15T08:14:12.277Z,15.97
2019-05-15T08:16:39.683Z,15.99
2019-05-15T08:19:08.598Z,16.00
2019-05-15T08:21:35.364Z,15.99
2019-05-15T08:24:02.252Z,16.11
2019-05-15T08:26:29.122Z,16.25
2019-05-15T08:28:57.933Z,16.28
2019-05-15T08:31:24.745Z,16.18
2019-05-15T08:33:51.772Z,16.18
2019-05-15T08:36:18.737Z,16.21
2019-05-15T08:38:45.614Z,16.21
2019-05-15T08:41:15.508Z,16.14
2019-05-15T08:43:41.080Z,16.20
2019-05-15T08:46:08.497Z,16.34
2019-05-15T08:48:38.147Z,16.42
2019-05-15T08:51:04.432Z,16.52
2019-05-15T08:53:31.388Z,16.57
2019-05-15T08:55:58.936Z,16.68
2019-05-15T08:58:26.021Z,16.69
2019-05-15T09:00:52.968Z,16.70
2019-05-15T09:03:19.841Z,16.70
2019-05-15T09:05:48.573Z,16.74
2019-05-15T09:08:15.302Z,16.71
2019-05-15T09:10:42.246Z,16.68
2019-05-15T09:13:09.565Z,16.70
2019-05-15T09:15:39.602Z,16.77
2019-05-15T09:18:14.348Z,16.77
2019-05-15T09:20:33.917Z,16.72
2019-05-15T09:23:00.869Z,16.81
2019-05-15T09:25:28.794Z,16.87
2019-05-15T09:27:57.812Z,16.95
2019-05-15T09:30:24.430Z,16.94
2019-05-15T09:32:51.754Z,16.97
2019-05-15T09:35:18.759Z,16.95
2019-05-15T09:37:45.725Z,16.96
2019-05-15T09:40:12.680Z,16.97
2019-05-15T09:42:39.613Z,16.93
2019-05-15T09:45:08.724Z,16.90
2019-05-15T09:47:39.175Z,16.87
2019-05-15T09:50:04.968Z,16.89
2019-05-15T09:52:31.849Z,16.96
2019-05-15T09:54:59.266Z,17.03
2019-05-15T09:57:26.359Z,17.05
2019-05-15T09:59:53.242Z,16.98
2019-05-15T10:02:20.147Z,16.98
2019-05-15T10:04:49.605Z,16.96
2019-05-15T10:07:15.660Z,16.93
2019-05-15T10:09:42.658Z,16.96
2019-05-15T10:12:09.617Z,17.01
2019-05-15T10:14:38.647Z,17.01
2019-05-15T10:17:05.219Z,17.08
2019-05-15T10:19:32.213Z,17.11
2019-05-15T10:21:59.714Z,17.15
2019-05-15T10:24:28.067Z,17.19
2019-05-15T10:26:55.086Z,17.15
2019-05-15T10:29:22.311Z,17.14
2019-05-15T10:31:49.200Z,17.17
2019-05-15T10:34:18.210Z,17.25
2019-05-15T10:36:44.756Z,17.28
2019-05-15T10:39:11.896Z,17.23
2019-05-15T10:41:39.086Z,17.24
2019-05-15T10:44:08.852Z,17.27
2019-05-15T10:46:34.689Z,17.30
2019-05-15T10:49:01.586Z,17.30
2019-05-15T10:51:28.763Z,17.39
2019-05-15T10:53:55.813Z,17.42
2019-05-15T10:56:22.773Z,17.39
2019-05-15T10:58:50.538Z,17.36
2019-05-15T11:01:19.276Z,17.37
2019-05-15T11:03:49.258Z,17.38
2019-05-15T11:06:15.197Z,17.35
2019-05-15T11:08:42.382Z,17.26
2019-05-15T11:11:09.444Z,17.25
2019-05-15T11:13:38.135Z,17.23
2019-05-15T11:16:05.355Z,17.26
2019-05-15T11:18:32.637Z,17.34
2019-05-15T11:20:59.650Z,17.35
2019-05-15T11:23:26.601Z,17.45
2019-05-15T11:25:54.641Z,17.55
2019-05-15T11:28:21.627Z,17.64
2019-05-15T11:30:49.230Z,17.69
2019-05-15T11:33:18.793Z,17.69
2019-05-15T11:35:57.969Z,17.74
2019-05-15T11:38:16.418Z,17.73
2019-05-15T11:40:42.138Z,17.66
2019-05-15T11:43:09.081Z,17.61
2019-05-15T11:45:38.338Z,17.56
2019-05-15T11:48:04.530Z,17.57
2019-05-15T11:50:31.417Z,17.59
2019-05-15T11:52:58.657Z,17.57
2019-05-15T11:55:25.723Z,17.54
2019-05-15T11:57:55.586Z,17.52
2019-05-15T12:00:26.739Z,17.50
2019-05-15T12:02:49.792Z,17.49
2019-05-15T12:05:18.245Z,17.44
2019-05-15T12:07:47.913Z,17.41
2019-05-15T12:10:13.897Z,17.46
2019-05-15T12:12:40.829Z,17.53
2019-05-15T12:15:07.804Z,17.63
2019-05-15T12:17:34.768Z,17.65
2019-05-15T12:20:06.192Z,17.70
2019-05-15T12:22:30.323Z,17.65
2019-05-15T12:25:00.511Z,17.64
2019-05-15T12:27:28.327Z,17.60
2019-05-15T12:29:54.825Z,17.51
2019-05-15T12:32:29.454Z,17.47
2019-05-15T12:34:50.371Z,17.43
2019-05-15T12:37:19.319Z,17.35
2019-05-15T12:39:45.905Z,17.32
2019-05-15T13:02:08.054Z,17.45
2019-05-15T13:04:34.378Z,17.51
2019-05-15T13:07:13.014Z,17.53
2019-05-15T13:09:29.844Z,17.56
2019-05-15T13:11:56.828Z,17.57
2019-05-15T13:14:24.102Z,17.58
2019-05-15T13:16:51.568Z,17.56
2019-05-15T13:19:19.072Z,17.51
2019-05-15T13:21:50.887Z,17.47
2019-05-15T13:24:14.742Z,17.48
2019-05-15T13:26:41.704Z,17.47
2019-05-15T13:29:09.171Z,17.50
2019-05-15T13:31:38.170Z,17.56
2019-05-15T13:34:04.997Z,17.57
2019-05-15T13:36:31.902Z,17.59
2019-05-15T13:38:58.786Z,17.62
2019-05-15T13:41:28.018Z,17.62
2019-05-15T13:43:54.301Z,17.64
2019-05-15T13:46:21.184Z,17.65
2019-05-15T13:48:49.040Z,17.65
2019-05-15T13:51:18.282Z,17.68
2019-05-15T13:53:44.808Z,17.70
2019-05-15T13:56:12.669Z,17.70
2019-05-15T13:58:39.613Z,17.74
2019-05-15T14:01:09.212Z,17.77
2019-05-15T14:03:35.109Z,17.79
2019-05-15T14:06:02.462Z,17.82
2019-05-15T14:08:29.420Z,17.84
2019-05-15T14:10:58.287Z,17.85
2019-05-15T14:13:28.402Z,17.76
2019-05-15T14:15:54.947Z,17.67
2019-05-15T14:18:22.117Z,17.70
2019-05-15T14:20:49.206Z,17.71
2019-05-15T14:23:18.461Z,17.71
2019-05-15T14:25:44.841Z,17.70
2019-05-15T14:28:11.791Z,17.67
2019-05-15T14:30:38.757Z,17.68
2019-05-15T14:33:08.433Z,17.75
2019-05-15T14:35:37.734Z,17.76
2019-05-15T14:38:06.699Z,17.81
2019-05-15T14:40:32.518Z,17.83
2019-05-15T14:42:59.533Z,17.86
2019-05-15T14:45:28.002Z,17.85
2019-05-15T14:47:55.060Z,17.86
2019-05-15T14:50:22.227Z,17.87
2019-05-15T14:52:49.469Z,17.89
2019-05-15T14:55:16.433Z,17.91
2019-05-15T14:57:43.432Z,17.96
2019-05-15T15:00:10.736Z,17.98
2019-05-15T15:02:39.020Z,17.98
2019-05-15T15:05:08.906Z,17.97
2019-05-15T15:07:35.152Z,17.93
2019-05-15T15:10:03.986Z,17.94
2019-05-15T15:12:30.932Z,17.96
2019-05-15T15:14:57.938Z,17.99
2019-05-15T15:17:24.880Z,18.05
2019-05-15T15:19:52.680Z,18.09
2019-05-15T15:22:20.403Z,18.09
2019-05-15T15:24:48.274Z,18.09
2019-05-15T15:27:15.540Z,18.10
2019-05-15T15:29:42.506Z,18.09
2019-05-15T15:32:09.610Z,18.08
2019-05-15T15:34:38.609Z,18.06
2019-05-15T15:37:05.170Z,18.06
2019-05-15T15:39:32.187Z,18.04
2019-05-15T15:41:59.197Z,18.08
2019-05-15T15:44:28.203Z,18.12
2019-05-15T15:46:55.355Z,18.15
2019-05-15T15:49:22.297Z,18.19
2019-05-15T15:51:49.171Z,18.23
2019-05-15T15:54:16.110Z,18.26
2019-05-15T15:56:43.671Z,18.26
2019-05-15T15:59:10.670Z,18.23
2019-05-15T16:01:38.967Z,18.23
2019-05-15T16:04:08.569Z,18.20
2019-05-15T16:06:35.296Z,18.23
2019-05-15T16:09:02.518Z,18.29
2019-05-15T16:11:30.287Z,18.35
2019-05-15T16:13:58.525Z,18.40
2019-05-15T16:16:25.803Z,18.47
2019-05-15T16:18:52.810Z,18.48
2019-05-15T16:21:20.099Z,18.52
2019-05-15T16:23:48.065Z,18.54
2019-05-15T16:26:15.170Z,18.55
2019-05-15T16:28:42.093Z,18.55
2019-05-15T16:31:09.454Z,18.59
2019-05-15T16:33:38.860Z,18.63
2019-05-15T16:36:05.092Z,18.62
2019-05-15T16:38:32.365Z,18.53
2019-05-15T16:41:00.231Z,18.51
2019-05-15T16:43:28.586Z,18.56
2019-05-15T16:45:58.732Z,18.62
2019-05-15T16:48:25.518Z,18.70
2019-05-15T16:50:53.925Z,18.72
2019-05-15T16:53:20.886Z,18.75
2019-05-15T16:55:48.219Z,18.77
2019-05-15T16:58:15.159Z,18.77
2019-05-15T17:00:42.502Z,18.81
2019-05-15T17:03:15.017Z,18.86
2019-05-15T17:05:39.136Z,18.89
2019-05-15T17:08:06.121Z,18.90
2019-05-15T17:10:32.990Z,18.91
2019-05-15T17:12:59.905Z,18.94
2019-05-15T17:15:27.956Z,18.99
2019-05-15T17:17:58.096Z,18.98
2019-05-15T17:20:24.763Z,18.83
2019-05-15T17:22:51.822Z,18.77
2019-05-15T17:25:21.746Z,18.73
2019-05-15T17:27:48.733Z,18.72
2019-05-15T17:30:18.107Z,18.72
2019-05-15T17:32:44.629Z,18.77
2019-05-15T17:35:11.818Z,18.77
2019-05-15T17:37:38.850Z,18.82
2019-05-15T17:40:06.126Z,18.88
2019-05-15T17:42:33.329Z,18.89
2019-05-15T17:45:00.352Z,18.80
2019-05-15T17:47:28.565Z,18.72
2019-05-15T17:49:55.652Z,18.71
2019-05-15T17:52:23.237Z,18.77
2019-05-15T17:54:50.317Z,18.79
2019-05-15T17:57:19.444Z,18.80
2019-05-15T17:59:48.517Z,18.82
2019-05-15T18:02:15.218Z,18.85
2019-05-15T18:04:42.177Z,18.82
2019-05-15T18:07:09.173Z,18.82
2019-05-15T18:09:48.449Z,18.79
2019-05-15T18:12:09.914Z,18.76
2019-05-15T18:14:34.409Z,18.73
2019-05-15T18:17:01.270Z,18.71
2019-05-15T18:19:28.442Z,18.75
2019-05-15T18:21:55.786Z,18.76
2019-05-15T18:24:22.741Z,18.77
2019-05-15T18:26:50.345Z,18.77
2019-05-15T18:29:18.300Z,18.80
2019-05-15T18:31:47.903Z,18.76
2019-05-15T18:34:18.606Z,18.75
2019-05-15T18:36:44.995Z,18.77
2019-05-15T18:39:12.279Z,18.75
2019-05-15T18:41:39.621Z,18.74
2019-05-15T18:44:06.503Z,18.73
2019-05-15T18:46:33.494Z,18.65
2019-05-15T18:49:00.671Z,18.56
2019-05-15T18:51:28.002Z,18.53
2019-05-15T18:53:56.126Z,18.54
2019-05-15T18:56:24.198Z,18.56
2019-05-15T18:58:51.182Z,18.53
2019-05-15T19:01:19.132Z,18.51
2019-05-15T19:03:46.208Z,18.50
2019-05-15T19:06:13.801Z,18.50
2019-05-15T19:08:40.903Z,18.51
2019-05-15T19:11:07.846Z,18.46
2019-05-15T19:13:35.152Z,18.42
2019-05-15T19:16:02.129Z,18.40
2019-05-15T19:18:29.140Z,18.39
2019-05-15T19:20:58.417Z,18.35
2019-05-15T19:23:24.632Z,18.33
2019-05-15T19:25:51.614Z,18.31
2019-05-15T19:28:18.955Z,18.35
2019-05-15T19:30:48.083Z,18.38
2019-05-15T19:33:15.113Z,18.40
2019-05-15T19:35:42.077Z,18.39
2019-05-15T19:38:09.557Z,18.37
2019-05-15T19:40:39.022Z,18.36
2019-05-15T19:43:06.023Z,18.38
2019-05-15T19:45:33.333Z,18.35
2019-05-15T19:48:00.602Z,18.31
2019-05-15T19:50:28.836Z,18.27
2019-05-15T19:52:55.989Z,18.31
2019-05-15T19:55:22.869Z,18.32
2019-05-15T19:57:51.287Z,18.32
2019-05-15T20:00:21.893Z,18.29
2019-05-15T20:02:49.054Z,18.27
2019-05-15T20:05:18.172Z,18.28
2019-05-15T20:07:44.794Z,18.32
2019-05-15T20:10:12.005Z,18.27
2019-05-15T20:12:39.672Z,18.27
2019-05-15T20:15:08.896Z,18.27
2019-05-15T20:17:35.795Z,18.32
2019-05-15T20:20:02.735Z,18.30
2019-05-15T20:22:31.344Z,18.32
2019-05-15T20:24:58.748Z,18.34
2019-05-15T20:27:28.063Z,18.39
2019-05-15T20:29:54.645Z,18.39
2019-05-15T20:32:21.508Z,18.44
2019-05-15T20:34:48.475Z,18.46
2019-05-15T20:37:15.404Z,18.44
2019-05-15T20:39:43.208Z,18.45
2019-05-15T20:42:10.114Z,18.49
2019-05-15T20:44:37.929Z,18.52
2019-05-15T20:47:05.205Z,18.51
2019-05-15T20:49:32.165Z,18.48
2019-05-15T20:52:00.297Z,18.46
2019-05-15T20:54:28.449Z,18.39
2019-05-15T20:56:58.389Z,18.34
2019-05-15T20:59:25.533Z,18.31
2019-05-15T21:01:52.517Z,18.28
2019-05-15T21:04:23.443Z,18.29
2019-05-15T21:06:48.476Z,18.29
2019-05-15T21:09:15.877Z,18.28
2019-05-15T21:11:42.817Z,18.31
2019-05-15T21:14:09.986Z,18.37
2019-05-15T21:16:36.859Z,18.33
2019-05-15T21:19:05.023Z,18.29
2019-05-15T21:21:31.981Z,18.26
2019-05-15T21:24:00.984Z,18.26
2019-05-15T21:26:29.117Z,18.25
2019-05-15T21:28:58.172Z,18.26
2019-05-15T21:31:24.771Z,18.24
2019-05-15T21:33:51.732Z,18.26
2019-05-15T21:36:19.504Z,18.27
2019-05-15T21:38:48.012Z,18.25
2019-05-15T21:41:15.109Z,18.29
2019-05-15T21:43:42.377Z,18.30
2019-05-15T21:46:09.333Z,18.30
2019-05-15T21:48:38.256Z,18.29
2019-05-15T21:51:04.842Z,18.32
2019-05-15T21:53:31.715Z,18.27
2019-05-15T21:55:58.998Z,18.26
2019-05-15T21:58:28.269Z,18.28
2019-05-15T22:00:54.613Z,18.29
2019-05-15T22:03:21.907Z,18.27
2019-05-15T22:05:48.859Z,18.28
2019-05-15T22:10:49.470Z,18.28
2019-05-15T22:13:16.410Z,18.29
2019-05-15T22:15:43.281Z,18.34
2019-05-15T22:18:12.821Z,18.39
2019-05-15T22:20:39.772Z,18.40
2019-05-15T22:23:08.220Z,18.41
2019-05-15T22:25:35.315Z,18.36
2019-05-15T22:28:02.530Z,18.34
2019-05-15T22:30:30.362Z,18.40
2019-05-15T22:32:58.706Z,18.42
2019-05-15T22:35:29.087Z,18.38
2019-05-15T22:37:54.816Z,18.40
2019-05-15T22:40:21.749Z,18.39
2019-05-15T22:42:48.930Z,18.37
2019-05-15T22:45:18.222Z,18.33
2019-05-15T22:47:44.617Z,18.33
2019-05-15T22:50:11.594Z,18.27
2019-05-15T22:52:39.014Z,18.29
2019-05-15T22:55:06.093Z,18.32
2019-05-15T22:57:33.342Z,18.32
2019-05-15T23:00:00.241Z,18.32
2019-05-15T23:02:27.196Z,18.32
2019-05-15T23:04:54.138Z,18.28
2019-05-15T23:07:21.493Z,18.25
2019-05-15T23:09:48.962Z,18.28
2019-05-15T23:12:18.179Z,18.26
2019-05-15T23:14:44.632Z,18.25
2019-05-15T23:17:11.592Z,18.25
2019-05-15T23:19:38.830Z,18.25
2019-05-15T23:22:08.191Z,18.27
2019-05-15T23:24:34.364Z,18.28
2019-05-15T23:27:01.267Z,18.25
2019-05-15T23:29:28.202Z,18.25
2019-05-15T23:31:55.150Z,18.25
2019-05-15T23:34:22.023Z,18.26
2019-05-15T23:36:48.961Z,18.26
2019-05-15T23:39:18.230Z,18.31
2019-05-15T23:41:45.399Z,18.33
2019-05-15T23:44:12.351Z,18.29
2019-05-15T23:46:39.217Z,18.24
2019-05-15T23:49:08.325Z,18.21
2019-05-15T23:51:34.957Z,18.22
2019-05-15T23:54:01.854Z,18.21
2019-05-15T23:56:29.200Z,18.21
2019-05-15T23:58:56.242Z,18.18
